Time;durP1;ratioP1;P1;durP2;ratioP2;P2;SDS_P1;SDS_P2;PMS_P1;PMS_P2;Temp;Humidity;BMP_temperature;BMP_pressure;BME280_temperature;BME280_humidity;BME280_pressure;Samples;Min_cycle;Max_cycle;Signal;HPM_P1;HPM_P2
2023/05/19 00:00:56;;;;;;;1999.90;999.90;;;7.90;1.00;;;;;;5133059;27;20114;-77
2023/05/19 00:03:23;;;;;;;1999.90;999.90;;;7.90;1.00;;;;;;5115023;27;20042;-78
2023/05/19 00:05:52;;;;;;;1999.90;999.90;;;7.90;1.00;;;;;;5132930;27;20074;-78
2023/05/19 00:08:19;;;;;;;1653.70;759.35;;;8.40;1.00;;;;;;5132548;27;20050;-78
2023/05/19 00:10:45;;;;;;;1999.90;999.90;;;7.90;1.00;;;;;;5132798;28;20059;-75
2023/05/19 00:13:11;;;;;;;1999.90;999.90;;;7.90;1.00;;;;;;5133035;28;20175;-76
2023/05/19 00:15:37;;;;;;;1999.90;999.90;;;7.80;1.00;;;;;;5115012;28;20043;-76
2023/05/19 00:18:03;;;;;;;1999.90;999.90;;;7.80;1.00;;;;;;5113964;28;20555;-77
2023/05/19 00:20:29;;;;;;;1999.90;999.90;;;7.80;1.00;;;;;;5133604;28;20090;-76
2023/05/19 00:22:54;;;;;;;1999.90;999.90;;;7.80;1.00;;;;;;5113763;28;20039;-76
2023/05/19 00:25:20;;;;;;;1999.90;999.90;;;7.80;1.00;;;;;;5133169;28;20047;-77
2023/05/19 00:27:46;;;;;;;1999.90;999.90;;;7.70;1.00;;;;;;5132127;28;20490;-77
2023/05/19 00:30:12;;;;;;;1999.90;999.90;;;7.80;1.00;;;;;;5133212;28;20050;-76
2023/05/19 00:32:37;;;;;;;1744.00;767.85;;;7.70;1.00;;;;;;5132841;28;20065;-76
2023/05/19 00:35:03;;;;;;;1999.90;999.90;;;7.70;1.00;;;;;;5114560;28;20059;-76
2023/05/19 00:37:29;;;;;;;1999.90;999.90;;;7.60;1.00;;;;;;5132110;28;20466;-77
2023/05/19 00:39:55;;;;;;;1999.90;999.90;;;7.60;1.00;;;;;;5132250;27;20039;-77
2023/05/19 00:42:21;;;;;;;1999.90;999.90;;;8.80;1.00;;;;;;5132713;28;20043;-76
2023/05/19 00:44:46;;;;;;;1999.90;999.90;;;7.70;1.00;;;;;;5132740;28;20051;-76
2023/05/19 00:47:12;;;;;;;1999.90;999.90;;;8.80;1.00;;;;;;5132932;28;20043;-76
2023/05/19 00:49:37;;;;;;;1999.90;999.90;;;8.50;1.00;;;;;;5132362;28;20059;-76
2023/05/19 00:52:05;;;;;;;1999.90;999.90;;;7.60;1.00;;;;;;5132568;28;20051;-76
2023/05/19 00:54:32;;;;;;;1999.90;999.90;;;7.60;1.00;;;;;;5131710;28;20218;-76
2023/05/19 00:56:59;;;;;;;1625.00;534.17;;;7.60;1.00;;;;;;5114049;28;20403;-76
2023/05/19 00:59:24;;;;;;;1850.45;768.97;;;8.20;1.00;;;;;;5097784;28;20394;-76
2023/05/19 01:01:51;;;;;;;1999.90;999.90;;;7.60;1.00;;;;;;5131973;28;20134;-76
2023/05/19 01:04:20;;;;;;;1999.90;999.90;;;7.50;1.00;;;;;;5134746;27;20491;-76
2023/05/19 01:06:53;;;;;;;1999.90;999.90;;;7.50;1.00;;;;;;5136314;27;20047;-77
2023/05/19 01:09:21;;;;;;;1999.90;999.90;;;7.80;1.00;;;;;;5135701;27;20053;-77
2023/05/19 01:11:47;;;;;;;1999.90;999.90;;;8.70;1.00;;;;;;5136294;27;20043;-77
2023/05/19 01:14:14;;;;;;;1999.90;999.90;;;6.60;1.00;;;;;;5136429;27;20088;-77
2023/05/19 01:16:46;;;;;;;1887.43;771.00;;;7.50;1.00;;;;;;5136294;27;20104;-77
2023/05/19 01:19:11;;;;;;;1999.90;999.90;;;7.40;1.00;;;;;;5135790;27;20047;-77
2023/05/19 01:22:11;;;;;;;1999.90;999.90;;;7.40;1.00;;;;;;5136290;27;20100;-77
2023/05/19 01:25:11;;;;;;;1999.90;999.90;;;7.40;1.00;;;;;;5135451;27;20047;-76
2023/05/19 01:27:40;;;;;;;1999.90;999.90;;;7.40;1.00;;;;;;5135941;27;20051;-77
2023/05/19 01:30:32;;;;;;;1999.90;999.90;;;7.40;1.00;;;;;;5135754;27;20187;-77
2023/05/19 01:33:01;;;;;;;1999.90;999.90;;;7.40;1.00;;;;;;5117332;27;20043;-76
2023/05/19 01:35:28;;;;;;;1999.90;999.90;;;7.30;1.00;;;;;;5136266;27;20055;-76
2023/05/19 01:37:56;;;;;;;1999.90;999.90;;;7.30;1.00;;;;;;5134322;27;20406;-77
2023/05/19 01:40:23;;;;;;;1999.90;999.90;;;7.70;1.00;;;;;;5117374;27;20051;-77
2023/05/19 01:42:51;;;;;;;1999.90;999.90;;;7.30;1.00;;;;;;5135753;27;20039;-77
2023/05/19 01:45:18;;;;;;;1999.90;999.90;;;7.30;1.00;;;;;;5135855;27;20130;-76
2023/05/19 01:47:49;;;;;;;1999.90;999.90;;;7.50;1.00;;;;;;5135697;27;20497;-76
2023/05/19 01:50:15;;;;;;;1999.90;999.90;;;8.40;1.00;;;;;;5135381;27;20483;-78
2023/05/19 01:52:41;;;;;;;1999.90;999.90;;;7.20;1.00;;;;;;5134711;27;20057;-78
2023/05/19 01:55:07;;;;;;;1999.90;999.90;;;7.20;1.30;;;;;;5134907;27;20578;-78
2023/05/19 01:58:12;;;;;;;1999.90;999.90;;;7.20;3.20;;;;;;5135429;27;20076;-77
2023/05/19 02:01:15;;;;;;;1999.90;999.90;;;7.20;1.90;;;;;;5101674;27;20055;-78
2023/05/19 02:04:10;;;;;;;1999.90;999.90;;;7.20;1.30;;;;;;5135189;27;20070;-77
2023/05/19 02:06:43;;;;;;;1999.90;999.90;;;7.20;6.90;;;;;;5135528;27;20055;-77
2023/05/19 02:09:15;;;;;;;1999.90;999.90;;;7.20;6.30;;;;;;5134192;27;20039;-78
2023/05/19 02:11:50;;;;;;;1999.90;999.90;;;7.00;16.70;;;;;;5135169;27;20396;-78
2023/05/19 02:14:28;;;;;;;1999.90;999.90;;;7.60;8.50;;;;;;5134977;27;20103;-78
2023/05/19 02:16:57;;;;;;;1999.90;999.90;;;7.40;8.00;;;;;;5134862;27;20422;-78
2023/05/19 02:19:30;;;;;;;1999.90;999.90;;;7.10;8.50;;;;;;5134983;27;20051;-78
2023/05/19 02:21:56;;;;;;;1999.90;999.90;;;7.10;8.90;;;;;;5134887;27;20047;-78
2023/05/19 02:24:22;;;;;;;1999.90;999.90;;;7.30;9.30;;;;;;5134218;27;20134;-78
2023/05/19 02:26:52;;;;;;;1999.90;999.90;;;7.10;9.90;;;;;;5135195;27;20062;-78
2023/05/19 02:29:19;;;;;;;1999.90;999.90;;;7.00;11.20;;;;;;5134117;27;20486;-78
2023/05/19 02:31:45;;;;;;;1999.90;999.90;;;7.10;9.60;;;;;;5135139;27;20057;-78
2023/05/19 02:34:11;;;;;;;1725.25;762.67;;;7.50;11.40;;;;;;5134352;27;20122;-78
2023/05/19 02:36:39;;;;;;;1347.43;520.80;;;7.60;13.10;;;;;;5134714;27;20532;-78
2023/05/19 02:39:05;;;;;;;1999.90;999.90;;;7.00;13.20;;;;;;5133408;27;20047;-77
2023/05/19 02:41:31;;;;;;;1798.38;767.33;;;7.00;14.00;;;;;;5127078;27;20047;-77
2023/05/19 02:43:57;;;;;;;1587.63;529.75;;;7.00;15.00;;;;;;5134672;27;20460;-77
2023/05/19 02:46:23;;;;;;;1472.00;525.47;;;7.80;17.60;;;;;;5134326;27;20099;-77
2023/05/19 02:48:49;;;;;;;1999.90;999.90;;;5.30;20.50;;;;;;5134749;27;20043;-77
2023/05/19 02:51:15;;;;;;;1999.90;999.90;;;7.90;19.60;;;;;;5133669;27;20388;-77
2023/05/19 02:53:41;;;;;;;1999.90;999.90;;;6.90;20.80;;;;;;5133627;27;20055;-77
2023/05/19 02:56:06;;;;;;;1999.90;999.90;;;6.90;21.80;;;;;;5134208;27;20440;-77
2023/05/19 02:58:32;;;;;;;1999.90;999.90;;;8.20;23.80;;;;;;5134271;27;20476;-77
2023/05/19 03:00:58;;;;;;;1999.90;999.90;;;6.90;27.10;;;;;;5133942;27;20054;-77
2023/05/19 03:03:23;;;;;;;1999.90;999.90;;;6.90;31.30;;;;;;5115407;27;20505;-76
2023/05/19 03:05:49;;;;;;;1999.90;999.90;;;7.90;35.30;;;;;;5133256;27;20047;-77
2023/05/19 03:08:15;;;;;;;1999.90;999.90;;;6.80;37.30;;;;;;5132841;27;20047;-77
2023/05/19 03:10:40;;;;;;;1167.90;283.98;;;6.80;37.20;;;;;;5134241;27;20039;-77
2023/05/19 03:13:06;;;;;;;1544.95;303.55;;;6.80;36.50;;;;;;5114989;27;20054;-77
2023/05/19 03:15:33;;;;;;;1999.90;999.90;;;6.70;37.50;;;;;;5099322;27;20059;-76
2023/05/19 03:17:58;;;;;;;1999.90;999.90;;;6.70;36.50;;;;;;5133553;27;20043;-76
2023/05/19 03:20:24;;;;;;;1999.90;999.90;;;6.80;45.90;;;;;;5133547;27;20053;-77
2023/05/19 03:22:50;;;;;;;1999.90;999.90;;;6.60;40.40;;;;;;5133059;27;20038;-77
2023/05/19 03:25:15;;;;;;;1997.97;552.70;;;6.60;42.40;;;;;;5133519;27;20062;-77
2023/05/19 03:27:41;;;;;;;1999.90;999.90;;;6.60;47.80;;;;;;5132834;27;20057;-76
2023/05/19 03:30:08;;;;;;;1949.50;549.60;;;7.20;45.80;;;;;;5114899;27;20043;-77
2023/05/19 03:32:36;;;;;;;1999.90;999.90;;;6.60;44.60;;;;;;5133723;27;20091;-77
2023/05/19 03:35:03;;;;;;;1397.18;524.72;;;7.50;44.90;;;;;;5115448;27;20051;-77
2023/05/19 03:37:29;;;;;;;1999.90;999.90;;;6.60;46.20;;;;;;5132589;27;20047;-76
2023/05/19 03:39:56;;;;;;;1999.90;999.90;;;7.00;48.60;;;;;;5115107;27;20104;-77
2023/05/19 03:42:22;;;;;;;1999.90;999.90;;;6.70;77.00;;;;;;5114715;27;20449;-77
2023/05/19 03:44:47;;;;;;;1999.90;999.90;;;6.60;51.60;;;;;;5133610;27;20092;-77
2023/05/19 03:47:13;;;;;;;1999.90;999.90;;;6.80;51.40;;;;;;5133003;27;20126;-77
2023/05/19 03:49:39;;;;;;;1999.90;999.90;;;7.60;53.30;;;;;;5114942;27;20064;-77
2023/05/19 03:52:04;;;;;;;1999.90;999.90;;;7.30;53.00;;;;;;5133518;27;20047;-77
2023/05/19 03:54:30;;;;;;;1672.20;536.92;;;6.60;53.70;;;;;;5132020;27;20476;-77
2023/05/19 03:56:56;;;;;;;1999.90;999.90;;;7.90;56.70;;;;;;5115353;27;20047;-77
2023/05/19 03:59:22;;;;;;;1999.90;999.90;;;6.60;61.50;;;;;;5132390;27;20092;-76
2023/05/19 04:01:48;;;;;;;1999.90;999.90;;;6.60;64.10;;;;;;5133096;27;20174;-77
2023/05/19 04:04:14;;;;;;;1999.90;999.90;;;6.80;59.10;;;;;;5132597;27;20068;-77
2023/05/19 04:06:39;;;;;;;1999.90;999.90;;;6.60;60.80;;;;;;5133429;27;20035;-77
2023/05/19 04:09:12;;;;;;;1716.50;536.78;;;6.60;60.00;;;;;;5132447;28;20535;-77
2023/05/19 04:11:39;;;;;;;1999.90;999.90;;;7.10;61.80;;;;;;5133465;28;20043;-77
2023/05/19 04:14:05;;;;;;;1999.90;999.90;;;6.70;63.10;;;;;;5114662;28;20486;-77
2023/05/19 04:16:31;;;;;;;1999.90;999.90;;;7.20;64.60;;;;;;5132979;28;20043;-76
2023/05/19 04:18:57;;;;;;;1999.90;999.90;;;7.30;65.90;;;;;;5114539;28;20039;-77
2023/05/19 04:21:22;;;;;;;1999.90;999.90;;;7.60;67.70;;;;;;5114629;28;20620;-77
2023/05/19 04:23:48;;;;;;;1999.90;999.90;;;7.00;66.20;;;;;;5132312;28;20047;-77
2023/05/19 04:26:15;;;;;;;1999.90;999.90;;;;;;;;;;5132790;28;20047;-77
2023/05/19 04:28:43;;;;;;;1999.90;999.90;;;6.90;57.40;;;;;;5132985;28;20043;-77
2023/05/19 04:31:13;;;;;;;1999.90;999.90;;;7.00;72.50;;;;;;5133082;28;20043;-77
2023/05/19 04:33:39;;;;;;;1999.90;999.90;;;8.70;78.70;;;;;;5133224;28;20051;-77
2023/05/19 04:36:09;;;;;;;1717.55;534.92;;;7.80;76.80;;;;;;5132877;28;20035;-77
2023/05/19 04:38:38;;;;;;;1999.90;999.90;;;7.00;73.90;;;;;;5132890;27;20133;-77
2023/05/19 04:41:08;;;;;;;1999.90;999.90;;;7.00;71.60;;;;;;5147545;27;20031;-77
2023/05/19 04:43:34;;;;;;;1999.90;999.90;;;7.70;71.40;;;;;;5157051;27;20049;-77
2023/05/19 04:46:00;;;;;;;1999.90;999.90;;;7.10;69.60;;;;;;5157948;27;20058;-77
2023/05/19 04:48:29;;;;;;;1999.90;999.90;;;7.10;70.50;;;;;;5157144;27;20051;-77
2023/05/19 04:50:55;;;;;;;1999.90;999.90;;;7.60;75.10;;;;;;5138885;27;20146;-77
2023/05/19 04:53:21;;;;;;;1999.90;999.90;;;6.90;77.30;;;;;;5156229;27;20482;-77
2023/05/19 04:55:46;;;;;;;1999.90;999.90;;;7.30;73.20;;;;;;5139292;27;20085;-76
2023/05/19 04:58:12;;;;;;;1999.90;999.90;;;8.30;72.70;;;;;;5157119;27;20051;-78
2023/05/19 05:00:38;;;;;;;1999.90;999.90;;;8.70;70.80;;;;;;5157098;27;20091;-77
2023/05/19 05:03:06;;;;;;;1999.90;999.90;;;7.40;67.90;;;;;;5157525;27;20125;-76
2023/05/19 05:05:33;;;;;;;1999.90;999.90;;;7.40;92.80;;;;;;5156985;27;20129;-76
2023/05/19 05:07:59;;;;;;;1999.90;999.90;;;8.60;68.80;;;;;;5156389;27;20043;-76
2023/05/19 05:10:25;;;;;;;1999.90;999.90;;;7.60;72.70;;;;;;5156908;27;20045;-76
2023/05/19 05:12:50;;;;;;;1999.90;999.90;;;7.60;74.60;;;;;;5157287;27;20043;-76
2023/05/19 05:15:17;;;;;;;1607.07;757.03;;;7.70;73.30;;;;;;5156917;27;20043;-79
2023/05/19 05:17:43;;;;;;;1999.90;999.90;;;7.80;77.80;;;;;;5157134;27;20090;-77
2023/05/19 05:20:10;;;;;;;1999.90;999.90;;;7.90;87.00;;;;;;5157280;27;20046;-77
2023/05/19 05:22:37;;;;;;;1999.90;999.90;;;8.10;85.30;;;;;;5155446;27;20046;-77
2023/05/19 05:25:03;;;;;;;1999.90;999.90;;;8.00;86.20;;;;;;5138742;27;20061;-78
2023/05/19 05:27:30;;;;;;;1999.90;999.90;;;8.20;88.00;;;;;;5137840;27;20047;-77
2023/05/19 05:29:55;;;;;;;1999.90;999.90;;;8.20;93.80;;;;;;5156901;27;20042;-77
2023/05/19 05:32:21;;;;;;;1999.90;999.90;;;8.30;92.20;;;;;;5156572;27;20479;-77
2023/05/19 05:34:47;;;;;;;1999.90;999.90;;;8.30;90.40;;;;;;5157076;27;20066;-77
2023/05/19 05:37:13;;;;;;;1999.90;999.90;;;8.40;95.80;;;;;;5157382;27;20482;-77
2023/05/19 05:39:39;;;;;;;1999.90;999.90;;;8.50;93.70;;;;;;5139943;27;20394;-77
2023/05/19 05:42:05;;;;;;;1999.90;999.90;;;8.60;92.50;;;;;;5135974;27;20054;-77
2023/05/19 05:44:30;;;;;;;1999.90;999.90;;;8.70;98.00;;;;;;5117087;27;20047;-77
2023/05/19 05:46:56;;;;;;;1999.90;999.90;;;8.70;94.90;;;;;;5136163;27;20369;-78
2023/05/19 05:49:22;;;;;;;1999.90;999.90;;;8.80;95.00;;;;;;5116412;27;20055;-77
2023/05/19 05:51:48;;;;;;;1999.90;999.90;;;8.90;96.30;;;;;;5135459;27;20100;-77
2023/05/19 05:54:17;;;;;;;1999.90;999.90;;;9.00;99.90;;;;;;5099698;27;20399;-78
2023/05/19 05:56:43;;;;;;;1999.90;999.90;;;9.00;96.90;;;;;;5135482;27;20104;-78
2023/05/19 05:59:08;;;;;;;1999.90;999.90;;;9.00;96.20;;;;;;5135154;27;20047;-77
2023/05/19 06:01:35;;;;;;;1999.90;999.90;;;9.10;95.90;;;;;;5117213;27;20072;-78
2023/05/19 06:04:01;;;;;;;1999.90;999.90;;;9.20;99.90;;;;;;5135594;27;20050;-77
2023/05/19 06:06:26;;;;;;;1999.90;999.90;;;9.20;99.90;;;;;;5117101;27;20399;-77
2023/05/19 06:08:52;;;;;;;1999.90;999.90;;;9.40;97.70;;;;;;5134605;27;20054;-77
2023/05/19 06:11:18;;;;;;;1999.90;999.90;;;9.50;99.90;;;;;;5135303;27;20122;-77
2023/05/19 06:13:44;;;;;;;1999.90;999.90;;;9.60;99.90;;;;;;5116683;27;20083;-77
2023/05/19 06:16:10;;;;;;;1999.90;999.90;;;9.70;92.60;;;;;;5135247;27;20047;-77
2023/05/19 06:18:35;;;;;;;1999.90;999.90;;;9.80;90.80;;;;;;5134616;27;20068;-78
2023/05/19 06:21:02;;;;;;;1999.90;999.90;;;9.90;90.40;;;;;;5135369;27;20043;-78
2023/05/19 06:23:29;;;;;;;1999.90;999.90;;;9.90;70.30;;;;;;5133827;27;20440;-78
2023/05/19 06:25:55;;;;;;;1377.18;523.05;;;10.00;69.00;;;;;;5116755;27;20099;-77
2023/05/19 06:28:21;;;;;;;1999.90;999.90;;;10.00;68.40;;;;;;5134530;27;20047;-79
2023/05/19 06:30:47;;;;;;;1999.90;999.90;;;10.10;66.00;;;;;;5135111;27;20497;-78
2023/05/19 06:33:12;;;;;;;1999.90;999.90;;;10.10;66.90;;;;;;5135071;27;20050;-78
2023/05/19 06:35:38;;;;;;;1999.90;999.90;;;10.20;58.10;;;;;;5134733;27;20042;-78
2023/05/19 06:38:03;;;;;;;1999.90;999.90;;;10.30;42.70;;;;;;5133884;27;20068;-77
2023/05/19 06:40:29;;;;;;;1999.90;999.90;;;10.40;37.80;;;;;;5134524;27;20047;-76
2023/05/19 06:42:55;;;;;;;1999.90;999.90;;;10.50;43.30;;;;;;5116341;27;20043;-77
2023/05/19 06:45:21;;;;;;;1643.82;758.97;;;10.70;17.10;;;;;;5134660;27;20078;-77
2023/05/19 06:47:48;;;;;;;1999.90;999.90;;;10.80;12.50;;;;;;5134063;27;20471;-77
2023/05/19 06:50:14;;;;;;;1999.90;999.90;;;11.00;8.10;;;;;;5134178;27;20051;-77
2023/05/19 06:52:40;;;;;;;1999.90;999.90;;;11.10;7.70;;;;;;5133401;27;20043;-77
2023/05/19 06:55:06;;;;;;;1999.90;999.90;;;11.40;1.00;;;;;;5134619;27;20050;-76
2023/05/19 06:57:32;;;;;;;1999.90;999.90;;;11.30;1.00;;;;;;5133937;27;20380;-78
2023/05/19 06:59:57;;;;;;;1999.90;999.90;;;11.60;1.00;;;;;;5134474;27;20042;-78
2023/05/19 07:02:23;;;;;;;1999.90;999.90;;;11.70;1.00;;;;;;5098829;27;20043;-77
2023/05/19 07:04:51;;;;;;;1999.90;999.90;;;13.00;1.00;;;;;;5133947;27;20047;-78
2023/05/19 07:07:17;;;;;;;1999.90;999.90;;;14.50;1.00;;;;;;5115737;27;20042;-79
2023/05/19 07:09:43;;;;;;;1999.90;999.90;;;16.20;1.00;;;;;;5133603;27;20039;-78
2023/05/19 07:12:08;;;;;;;1999.90;680.83;;;17.50;1.00;;;;;;5133977;27;20470;-78
2023/05/19 07:14:35;;;;;;;1999.90;999.90;;;18.60;1.00;;;;;;5133731;27;20046;-78
2023/05/19 07:17:01;;;;;;;1999.90;920.22;;;19.40;99.90;;;;;;5133902;27;20047;-78
2023/05/19 07:19:26;;;;;;;1999.90;999.90;;;20.30;99.90;;;;;;5115494;27;20043;-79
2023/05/19 07:21:53;;;;;;;1999.90;999.90;;;21.00;99.90;;;;;;5115749;27;20053;-78
2023/05/19 07:24:20;;;;;;;1999.90;999.90;;;22.00;99.90;;;;;;5114863;27;20055;-78
2023/05/19 07:26:45;;;;;;;1999.90;999.90;;;22.90;99.90;;;;;;5133565;27;20121;-78
2023/05/19 07:29:11;;;;;;;1999.90;999.90;;;23.60;99.90;;;;;;5133741;27;20130;-77
2023/05/19 07:31:37;;;;;;;1999.90;999.90;;;24.00;99.90;;;;;;5115176;27;20039;-77
2023/05/19 07:34:03;;;;;;;1999.90;999.90;;;24.50;99.90;;;;;;5133726;27;20124;-77
2023/05/19 07:36:28;;;;;;;1999.90;999.90;;;25.20;99.90;;;;;;5098480;27;20079;-77
2023/05/19 07:38:54;;;;;;;1999.90;999.90;;;25.90;99.90;;;;;;5114284;27;20134;-77
2023/05/19 07:41:20;;;;;;;1999.90;999.90;;;26.30;99.90;;;;;;5133397;27;20103;-77
2023/05/19 07:43:46;;;;;;;1999.90;999.90;;;26.70;99.90;;;;;;5132844;27;20042;-77
2023/05/19 07:46:11;;;;;;;1999.90;999.90;;;26.80;99.90;;;;;;5133380;27;20064;-77
2023/05/19 07:48:37;;;;;;;1999.90;999.90;;;26.70;99.90;;;;;;5114587;27;20047;-77
2023/05/19 07:51:03;;;;;;;1999.90;999.90;;;27.10;99.90;;;;;;5133507;27;20404;-77
2023/05/19 07:53:29;;;;;;;1999.90;999.90;;;27.30;99.90;;;;;;5132640;27;20043;-77
2023/05/19 07:55:55;;;;;;;1999.90;999.90;;;27.90;99.90;;;;;;5114856;27;20043;-77
2023/05/19 07:58:21;;;;;;;1999.90;999.90;;;28.10;99.90;;;;;;5115215;27;20500;-77
2023/05/19 08:00:46;;;;;;;1999.90;999.90;;;28.20;99.90;;;;;;5132951;27;20395;-77
2023/05/19 08:03:12;;;;;;;1999.90;999.90;;;27.90;99.90;;;;;;5133269;27;20047;-76
2023/05/19 08:05:38;;;;;;;1999.90;999.90;;;28.00;99.90;;;;;;5114907;27;20116;-77
2023/05/19 08:08:04;;;;;;;1999.90;999.90;;;28.50;99.90;;;;;;5132418;27;20054;-77
2023/05/19 08:10:29;;;;;;;1999.90;999.90;;;29.00;99.90;;;;;;5133302;27;20054;-78
2023/05/19 08:12:55;;;;;;;1999.90;999.90;;;29.60;99.90;;;;;;5132116;27;20039;-78
2023/05/19 08:15:21;;;;;;;1999.90;999.90;;;29.80;99.90;;;;;;5133448;28;20100;-77
2023/05/19 08:17:47;;;;;;;1999.90;999.90;;;30.10;99.90;;;;;;5114041;28;20042;-78
2023/05/19 08:20:13;;;;;;;1999.90;999.90;;;30.50;99.90;;;;;;5098209;28;20503;-78
2023/05/19 08:22:39;;;;;;;1999.90;999.90;;;30.60;99.90;;;;;;5114102;28;20527;-77
2023/05/19 08:25:06;;;;;;;1999.90;999.90;;;30.80;99.90;;;;;;5133099;28;20134;-78
2023/05/19 08:27:33;;;;;;;1999.90;999.90;;;31.20;99.90;;;;;;5114892;28;20058;-77
2023/05/19 08:29:58;;;;;;;1999.90;999.90;;;31.10;99.90;;;;;;5114511;28;20054;-77
2023/05/19 08:32:24;;;;;;;1999.90;999.90;;;31.20;99.90;;;;;;5132790;28;20047;-77
2023/05/19 08:34:50;;;;;;;1999.90;999.90;;;31.10;99.90;;;;;;5097736;28;20047;-77
2023/05/19 08:37:16;;;;;;;1999.90;999.90;;;30.80;99.90;;;;;;5097986;28;20039;-78
2023/05/19 08:39:41;;;;;;;1999.90;999.90;;;30.80;99.90;;;;;;5132066;27;20050;-77
2023/05/19 08:42:08;;;;;;;1999.90;999.90;;;30.20;99.90;;;;;;5133012;27;20391;-77
2023/05/19 08:44:36;;;;;;;1999.90;999.90;;;30.00;99.90;;;;;;5132703;28;20483;-77
2023/05/19 08:47:11;;;;;;;1999.90;999.90;;;29.30;99.90;;;;;;5132822;28;20134;-77
2023/05/19 08:49:46;;;;;;;1999.90;999.90;;;29.40;99.90;;;;;;5132641;28;20122;-79
2023/05/19 08:52:11;;;;;;;1999.90;999.90;;;29.50;99.90;;;;;;5097269;28;20044;-77
2023/05/19 08:54:45;;;;;;;1999.90;999.90;;;29.70;99.90;;;;;;5132242;28;20057;-78
2023/05/19 08:57:12;;;;;;;1999.90;999.90;;;29.90;99.90;;;;;;5133087;28;20043;-77
2023/05/19 08:59:39;;;;;;;1999.90;999.90;;;29.90;99.90;;;;;;5132750;28;20068;-78
2023/05/19 09:02:07;;;;;;;;;;;30.00;99.90;;;;;;5115261;28;20285;-78
2023/05/19 09:04:33;;;;;;;1999.90;999.90;;;30.20;99.90;;;;;;5132747;28;19964;-78
2023/05/19 09:07:02;;;;;;;1999.90;999.90;;;30.40;99.90;;;;;;5132725;28;20183;-78
2023/05/19 09:09:29;;;;;;;1999.90;999.90;;;30.20;99.90;;;;;;5131805;28;20044;-78
2023/05/19 09:11:55;;;;;;;1999.90;999.90;;;30.80;99.90;;;;;;5132711;28;20100;-78
2023/05/19 09:14:21;;;;;;;1999.90;999.90;;;31.10;99.90;;;;;;5132775;28;20040;-78
2023/05/19 09:16:49;;;;;;;1999.90;999.90;;;30.90;99.90;;;;;;5132213;28;20117;-78
2023/05/19 09:19:15;;;;;;;1999.90;999.90;;;31.40;99.90;;;;;;5132771;28;20487;-78
2023/05/19 09:21:41;;;;;;;1999.90;999.90;;;31.50;99.90;;;;;;5097033;28;20035;-78
2023/05/19 09:24:08;;;;;;;1999.90;999.90;;;31.90;99.90;;;;;;5113693;27;20055;-78
2023/05/19 09:26:41;;;;;;;1999.90;999.90;;;32.40;99.90;;;;;;5135457;27;20051;-77
2023/05/19 09:29:15;;;;;;;1999.90;999.90;;;33.00;99.90;;;;;;5118037;27;20051;-78
2023/05/19 09:31:51;;;;;;;1999.90;999.90;;;33.10;99.90;;;;;;5136067;27;20051;-78
2023/05/19 09:34:17;;;;;;;1999.90;999.90;;;33.50;99.90;;;;;;5135947;27;20134;-78
2023/05/19 09:36:45;;;;;;;1999.90;999.90;;;33.20;99.90;;;;;;5135745;27;20411;-79
2023/05/19 09:39:15;;;;;;;1999.90;999.90;;;33.90;99.90;;;;;;5135032;27;20058;-79
2023/05/19 09:41:41;;;;;;;1999.90;999.90;;;33.20;99.90;;;;;;5135772;27;20398;-78
2023/05/19 09:44:28;;;;;;;1999.90;999.90;;;33.00;99.90;;;;;;5135466;27;20109;-79
2023/05/19 09:46:54;;;;;;;1999.90;999.90;;;31.80;99.90;;;;;;5135711;27;20054;-78
2023/05/19 09:49:24;;;;;;;1999.90;999.90;;;31.90;99.90;;;;;;5135432;27;20043;-78
2023/05/19 09:51:54;;;;;;;1999.90;999.90;;;31.00;99.90;;;;;;5135282;27;20079;-78
2023/05/19 09:54:21;;;;;;;1999.90;999.90;;;30.80;99.90;;;;;;5135012;27;20054;-79
2023/05/19 09:57:02;;;;;;;1999.90;999.90;;;31.40;99.90;;;;;;5116748;27;20047;-79
2023/05/19 09:59:29;;;;;;;1999.90;999.90;;;31.20;99.90;;;;;;5117546;27;20128;-79
2023/05/19 10:01:56;;;;;;;1999.90;999.90;;;31.60;99.90;;;;;;5135128;27;20051;-79
2023/05/19 10:04:23;;;;;;;1999.90;999.90;;;32.10;99.90;;;;;;5135462;27;20427;-80
2023/05/19 10:06:52;;;;;;;1999.90;999.90;;;32.00;99.90;;;;;;5135361;27;20570;-79
2023/05/19 10:09:26;;;;;;;1999.90;999.90;;;32.30;99.90;;;;;;5134558;27;20491;-79
2023/05/19 10:11:53;;;;;;;1999.90;999.90;;;31.10;99.90;;;;;;5135224;27;20095;-79
2023/05/19 10:14:25;;;;;;;1999.90;999.90;;;31.40;99.90;;;;;;5135312;27;20047;-78
2023/05/19 10:16:53;;;;;;;1999.90;999.90;;;32.40;99.90;;;;;;5135040;27;20047;-79
2023/05/19 10:19:22;;;;;;;;;;;33.10;99.90;;;;;;5135402;27;20050;-79
2023/05/19 10:21:49;;;;;;;1999.90;999.90;;;33.10;99.90;;;;;;5134460;27;19919;-78
2023/05/19 10:24:15;;;;;;;1999.90;999.90;;;33.30;99.90;;;;;;5134372;27;20047;-77
2023/05/19 10:26:45;;;;;;;1999.90;999.90;;;33.90;99.90;;;;;;5100095;27;20039;-78
2023/05/19 10:29:13;;;;;;;1999.90;999.90;;;34.10;99.90;;;;;;5134758;27;20047;-78
2023/05/19 10:31:40;;;;;;;1999.90;999.90;;;33.00;99.90;;;;;;5134655;27;20479;-78
2023/05/19 10:34:18;;;;;;;1999.90;999.90;;;32.30;99.90;;;;;;5116341;27;20499;-77
2023/05/19 10:36:47;;;;;;;1999.90;999.90;;;32.80;99.90;;;;;;5099384;27;20498;-79
2023/05/19 10:39:20;;;;;;;1999.90;999.90;;;32.70;99.90;;;;;;5133449;27;20376;-78
2023/05/19 10:41:58;;;;;;;1999.90;999.90;;;32.80;99.90;;;;;;5134671;27;20122;-79
2023/05/19 10:44:49;;;;;;;1999.90;999.90;;;32.50;99.90;;;;;;5116328;27;20391;-79
2023/05/19 10:47:24;;;;;;;1999.90;999.90;;;33.00;99.90;;;;;;5134908;27;20043;-79
2023/05/19 10:49:54;;;;;;;1999.90;999.90;;;31.80;99.90;;;;;;5099428;27;20063;-79
2023/05/19 10:52:21;;;;;;;1999.90;999.90;;;31.90;99.90;;;;;;5133963;27;20153;-79
2023/05/19 10:54:47;;;;;;;;;;;32.70;99.90;;;;;;5135213;27;20112;-79
2023/05/19 10:57:15;;;;;;;1999.90;999.90;;;32.70;99.90;;;;;;5115975;27;20355;-78
2023/05/19 10:59:43;;;;;;;1999.90;999.90;;;33.20;99.90;;;;;;5134547;27;20491;-78
2023/05/19 11:02:09;;;;;;;1999.90;999.90;;;33.50;99.90;;;;;;5134341;27;20047;-79
2023/05/19 11:04:52;;;;;;;1999.90;999.90;;;33.00;99.90;;;;;;5134500;27;20055;-79
2023/05/19 11:07:20;;;;;;;1999.90;999.90;;;34.00;99.90;;;;;;5134301;27;20125;-80
2023/05/19 11:09:52;;;;;;;1999.90;999.90;;;32.80;99.90;;;;;;5134360;27;20102;-79
2023/05/19 11:12:22;;;;;;;1999.90;999.90;;;33.30;99.90;;;;;;5134574;27;20094;-78
2023/05/19 11:14:52;;;;;;;1999.90;999.90;;;33.10;99.90;;;;;;5134422;27;20051;-78
2023/05/19 11:17:20;;;;;;;1999.90;999.90;;;33.40;99.90;;;;;;5133817;27;20506;-78
2023/05/19 11:19:56;;;;;;;1999.90;999.90;;;33.50;99.90;;;;;;5133810;27;20483;-78
2023/05/19 11:22:26;;;;;;;1999.90;999.90;;;33.20;99.90;;;;;;5133133;27;20133;-78
2023/05/19 11:24:54;;;;;;;1999.90;999.90;;;33.30;99.90;;;;;;5133724;27;20051;-78
2023/05/19 11:27:31;;;;;;;1999.90;999.90;;;33.30;99.90;;;;;;5115663;27;20047;-78
2023/05/19 11:30:18;;;;;;;1999.90;999.90;;;34.00;99.90;;;;;;5115823;27;20088;-78
2023/05/19 11:32:46;;;;;;;1999.90;999.90;;;34.00;99.90;;;;;;5116468;27;20050;-78
2023/05/19 11:35:13;;;;;;;1999.90;999.90;;;34.30;99.90;;;;;;5134510;27;20092;-78
2023/05/19 11:37:41;;;;;;;1999.90;999.90;;;33.80;99.90;;;;;;5133476;27;20051;-78
2023/05/19 11:40:08;;;;;;;1999.90;999.90;;;33.70;99.90;;;;;;5115170;27;20403;-78
2023/05/19 11:42:35;;;;;;;1999.90;999.90;;;34.10;99.90;;;;;;5133766;27;20095;-78
2023/05/19 11:45:02;;;;;;;1999.90;999.90;;;34.40;99.90;;;;;;5115297;27;20087;-78
2023/05/19 11:47:27;;;;;;;1999.90;999.90;;;33.20;99.90;;;;;;5115059;28;20065;-78
2023/05/19 11:49:55;;;;;;;1999.90;999.90;;;32.40;99.90;;;;;;5133195;27;20039;-78
2023/05/19 11:52:24;;;;;;;1999.90;999.90;;;31.20;99.90;;;;;;5132800;27;20051;-79
2023/05/19 11:54:50;;;;;;;1999.90;999.90;;;31.50;99.90;;;;;;5115524;27;20084;-78
2023/05/19 11:57:16;;;;;;;1999.90;954.15;;;32.30;99.90;;;;;;5133161;27;20087;-78
2023/05/19 11:59:46;;;;;;;1999.90;999.90;;;32.80;99.90;;;;;;5098563;27;20087;-79
2023/05/19 12:02:23;;;;;;;1999.90;999.90;;;32.60;99.90;;;;;;5133200;27;20047;-79
2023/05/19 12:04:50;;;;;;;1999.90;999.90;;;32.90;99.90;;;;;;5133679;27;20076;-79
2023/05/19 12:07:21;;;;;;;1999.90;999.90;;;33.10;99.90;;;;;;5097950;27;20047;-80
2023/05/19 12:09:49;;;;;;;1999.90;999.90;;;33.00;99.90;;;;;;5133386;27;20042;-79
2023/05/19 12:12:19;;;;;;;1999.90;999.90;;;32.80;99.90;;;;;;5114107;28;20050;-79